Aviation Digital Data Service (ADDS)

Output produced by METARs form (2052 UTC 24 June 2018)
found at http://www.aviationweather.gov/adds/metars/
 
UKKM 242030Z AUTO 21002MPS 9999 // NSC 13/10 Q1016
TAF UKKM 241701Z 2418/2518 23005MPS 6000 BKN025 
     TEMPO 2420/2505 2100 BR SCT005 
     BECMG 2505/2507 22005G10MPS 
     TEMPO 2507/2517 SCT020CB
       
UKBB 242030Z 25002MPS CAVOK 12/09 Q1016 R88/D NOSIG
TAF UKBB 241701Z 2418/2518 22003G08MPS 9999 BKN040 
     TEMPO 2421/2504 2000 BR BKN007
       
UKBB 242030Z 25002MPS CAVOK 12/09 Q1016 R88/D NOSIG
TAF UKBB 241701Z 2418/2518 22003G08MPS 9999 BKN040 
     TEMPO 2421/2504 2000 BR BKN007
       
UKDD 242030Z 02003MPS CAVOK 15/10 Q1017 R26/090070 NOSIG
TAF UKDD 241703Z 2418/2518 33004MPS CAVOK TX26/2512Z TN14/2502Z 
     BECMG 2422/2424 02002MPS
       
UKDE 242000Z 01003MPS CAVOK 17/11 Q1016 R02R/210570 NOSIG
TAF UKDE 242001Z 2421/2506 01003MPS 9999 SCT030
       
UKDR 242030Z 03003MPS 360V070 CAVOK 15/07 Q1017 R36/09//70 NOSIG
TAF UKDR 241701Z 2418/2518 VRB01MPS CAVOK
       
UKHH 242030Z 31002MPS 9999 FEW/// 14/10 Q1017 R25/0///72 NOSIG
TAF UKHH 242010Z 2421/2506 32003MPS 2100 BR BKN007 
     TEMPO 2500/2506 0400 FG VV002
       
UKKK 242030Z 21002MPS CAVOK 10/10 Q1017 R26/70D NOSIG
TAF UKKK 241702Z 2418/2518 23003MPS 9999 SCT020 
     TEMPO 2420/2506 2000 BR SCT007 
     BECMG 2506/2508 21005G10MPS 
     TEMPO 2508/2518 SCT025CB
       
UKKM 242030Z AUTO 21002MPS 9999 // NSC 13/10 Q1016
TAF UKKM 241701Z 2418/2518 23005MPS 6000 BKN025 
     TEMPO 2420/2505 2100 BR SCT005 
     BECMG 2505/2507 22005G10MPS 
     TEMPO 2507/2517 SCT020CB
       
UKLI 242030Z 00000MPS 6000 FEW040 SCT100 11/11 Q1017 R28/290565 NOSIG
TAF UKLI 242004Z 2421/2506 31004G09MPS 6000 SCT020CB BKN030 
     TEMPO 2421/2424 VRB10G15MPS 1000 TSRA BKN011CB 
     TEMPO 2500/2506 VRB01MPS 1100 -SHRA BR BKN011CB
       
UKLL 242030Z 22002MPS CAVOK 11/09 Q1016 R31/290055 NOSIG
TAF UKLL 241701Z 2418/2518 24004MPS 3000 BR BKN010 
     TEMPO 2418/2503 2100 -SHRA BKN007 BKN015CB 
     BECMG 2503/2504 27005MPS 
     BECMG 2506/2507 9999 NSW BKN020 SCT025CB 
     TEMPO 2511/2518 2100 -TSRAGR BKN007 BKN015CB
       
UKLN 242030Z 00000MPS CAVOK 13/10 Q1017 R15/09//70 NOSIG
TAF UKLN 242013Z 2421/2506 28005MPS 9999 SCT033 
     TEMPO 2421/2506 BKN020CB
       
UKLR 241500Z 22006MPS 190V250 9999 BKN029 17/09 Q1014 NOSIG
TAF UKLR 241103Z 2412/2421 23005G10MPS 9999 BKN010 BKN013CB 
     TEMPO 2412/2418 28009G14MPS 2100 -TSRA BKN007 BKN010CB
       
UKLU 241900Z 00000MPS 9999 FEW033CB BKN033 14/11 Q1017 NOSIG
TAF UKLU 241702Z 2418/2503 VRB01MPS 9999 BKN033 
     TEMPO 2418/2424 05005MPS -SHRA SCT025CB
       
UKOH 241900Z 26002MPS 230V300 CAVOK 19/11 Q1016 R03/CLRD// NOSIG
TAF UKOH 241702Z 2418/2503 30003MPS CAVOK
       
TAF UKON 241102Z 2412/2421 32003MPS 9999 SCT030CB
       
UKOO 242030Z 01002MPS CAVOK 18/06 Q1017 R16/090060 NOSIG
TAF UKOO 241705Z 2418/2518 01003MPS 6000 SCT020 SCT025CB 
     BECMG 2503/2504 07003MPS
       
UKWW 241900Z 22002MPS CAVOK 14/08 Q1017 R31/0///65 NOSIG
TAF UKWW 241710Z 2418/2503 20004MPS 9999 SCT040 
     TEMPO 2500/2503 2000 BR SCT007
       
UKLN 242030Z 00000MPS CAVOK 13/10 Q1017 R15/09//70 NOSIG
TAF UKLN 242013Z 2421/2506 28005MPS 9999 SCT033 
     TEMPO 2421/2506 BKN020CB
       
UKDD 242030Z 02003MPS CAVOK 15/10 Q1017 R26/090070 NOSIG
TAF UKDD 241703Z 2418/2518 33004MPS CAVOK TX26/2512Z TN14/2502Z 
     BECMG 2422/2424 02002MPS
       
UKLI 242030Z 00000MPS 6000 FEW040 SCT100 11/11 Q1017 R28/290565 NOSIG
TAF UKLI 242004Z 2421/2506 31004G09MPS 6000 SCT020CB BKN030 
     TEMPO 2421/2424 VRB10G15MPS 1000 TSRA BKN011CB 
     TEMPO 2500/2506 VRB01MPS 1100 -SHRA BR BKN011CB
       
UKDR 242030Z 03003MPS 360V070 CAVOK 15/07 Q1017 R36/09//70 NOSIG
TAF UKDR 241701Z 2418/2518 VRB01MPS CAVOK
       
UKLL 242030Z 22002MPS CAVOK 11/09 Q1016 R31/290055 NOSIG
TAF UKLL 241701Z 2418/2518 24004MPS 3000 BR BKN010 
     TEMPO 2418/2503 2100 -SHRA BKN007 BKN015CB 
     BECMG 2503/2504 27005MPS 
     BECMG 2506/2507 9999 NSW BKN020 SCT025CB 
     TEMPO 2511/2518 2100 -TSRAGR BKN007 BKN015CB
       
UKDE 242000Z 01003MPS CAVOK 17/11 Q1016 R02R/210570 NOSIG
TAF UKDE 242001Z 2421/2506 01003MPS 9999 SCT030
       
TAF UKON 241102Z 2412/2421 32003MPS 9999 SCT030CB
       
UKOO 242030Z 01002MPS CAVOK 18/06 Q1017 R16/090060 NOSIG
TAF UKOO 241705Z 2418/2518 01003MPS 6000 SCT020 SCT025CB 
     BECMG 2503/2504 07003MPS
       
UKHH 242030Z 31002MPS 9999 FEW/// 14/10 Q1017 R25/0///72 NOSIG
TAF UKHH 242010Z 2421/2506 32003MPS 2100 BR BKN007 
     TEMPO 2500/2506 0400 FG VV002
       
UKLR 241500Z 22006MPS 190V250 9999 BKN029 17/09 Q1014 NOSIG
TAF UKLR 241103Z 2412/2421 23005G10MPS 9999 BKN010 BKN013CB 
     TEMPO 2412/2418 28009G14MPS 2100 -TSRA BKN007 BKN010CB
       
UKLU 241900Z 00000MPS 9999 FEW033CB BKN033 14/11 Q1017 NOSIG
TAF UKLU 241702Z 2418/2503 VRB01MPS 9999 BKN033 
     TEMPO 2418/2424 05005MPS -SHRA SCT025CB
       
UKKK 242030Z 21002MPS CAVOK 10/10 Q1017 R26/70D NOSIG
TAF UKKK 241702Z 2418/2518 23003MPS 9999 SCT020 
     TEMPO 2420/2506 2000 BR SCT007 
     BECMG 2506/2508 21005G10MPS 
     TEMPO 2508/2518 SCT025CB